logo meteosicilia

Diretta Meteo Falconara, Italiamercoledì 22 maggio ore 12:50

Mappa
Sereno 24 °C Poco Nuvoloso 24 Ore: T.min 13 T.max 26
Ponente Ovest Km/h 22.2 Punto di rugiada: 8 °C Umidità: 35% Visibilità: 10 Km
Il sole sorge alle: 05:32 Il sole tramonta alle: 20:33
22 Maggio 2024 12:50 tempo osservato: Poco Nuvoloso Poco Nuvoloso 24 35 1012 vento: Nord O 22.2
22 Maggio 2024 12:20 tempo osservato: Poco Nuvoloso Poco Nuvoloso 23 43 1012 vento: Nord O 22.2
22 Maggio 2024 11:50 tempo osservato: Nuvoloso Nuvoloso 24 43 1012 vento: Nord O/SO 22.2
22 Maggio 2024 11:20 tempo osservato: Sereno Sereno 24 43 1012 vento: Nord O/SO 24
22 Maggio 2024 10:50 tempo osservato: Sereno Sereno 23 46 1012 vento: Nord O/SO 27.8
22 Maggio 2024 10:20 tempo osservato: Sereno Sereno 23 49 1012 vento: Nord SO 25.9
22 Maggio 2024 09:50 tempo osservato: Sereno Sereno 22 49 1012 vento: Nord SO 29.6
22 Maggio 2024 09:20 tempo osservato: Sereno Sereno 22 49 1012 vento: Nord SO 31.5
22 Maggio 2024 08:50 tempo osservato: Sereno Sereno 21 52 1012 vento: Nord O/SO 31.5
22 Maggio 2024 08:20 tempo osservato: Sereno Sereno 20 59 1011 vento: Nord SO 27.8
22 Maggio 2024 07:50 tempo osservato: Sereno Sereno 19 63 1011 vento: Nord SO 14.8
22 Maggio 2024 07:20 tempo osservato: Sereno Sereno 18 67 1011 vento: Nord S/SO 11.1
22 Maggio 2024 06:50 tempo osservato: Sereno Sereno 17 67 1011 vento: Nord SO 11.1
22 Maggio 2024 06:20 tempo osservato: Sereno Sereno 16 72 1011 vento: Nord S/SO 11.1
22 Maggio 2024 05:50 tempo osservato: Sereno Sereno 15 72 1011 vento: Nord SO 9.3
22 Maggio 2024 05:20 tempo osservato: Sereno Sereno 15 72 1011 vento: Nord SO 7.4
22 Maggio 2024 04:50 tempo osservato: Sereno Sereno 16 67 1011 vento: Nord SO 7.4
22 Maggio 2024 04:20 tempo osservato: Sereno Sereno 15 72 1011 vento: Nord N 5.5
22 Maggio 2024 03:50 tempo osservato: Sereno Sereno 16 67 1011 vento: Nord SO 9.3
22 Maggio 2024 03:20 tempo osservato: Sereno Sereno 16 67 1010 vento: Nord S 7.4
22 Maggio 2024 02:50 tempo osservato: Sereno Sereno 16 67 1010 vento: Nord S 7.4
22 Maggio 2024 02:20 tempo osservato: Sereno Sereno 13 81 1010 vento: Nord SO 11.1
22 Maggio 2024 01:50 tempo osservato: Sereno Sereno 16 67 1010 vento: Nord N 3.7
22 Maggio 2024 01:20 tempo osservato: Sereno Sereno 16 67 1010 vento: Nord S/SO 7.4
22 Maggio 2024 00:50 tempo osservato: Sereno Sereno 15 72 1010 vento: Nord O/SO 7.4
22 Maggio 2024 00:20 tempo osservato: Sereno Sereno 17 63 1010 vento: Nord N 5.5
21 Maggio 2024 23:50 tempo osservato: Sereno Sereno 17 63 1011 vento: Nord S/SO 7.4
21 Maggio 2024 23:20 tempo osservato: Sereno Sereno 18 59 1010 vento: Nord SO 11.1
21 Maggio 2024 22:50 tempo osservato: Sereno Sereno 18 59 1010 vento: Nord S 9.3
21 Maggio 2024 22:20 tempo osservato: Sereno Sereno 17 67 1010 vento: Nord N 3.7
21 Maggio 2024 21:50 tempo osservato: Sereno Sereno 19 55 1010 vento: Nord SO 11.1
21 Maggio 2024 21:20 tempo osservato: Sereno Sereno 19 55 1010 vento: Nord O/SO 9.3
21 Maggio 2024 20:50 tempo osservato: Sereno Sereno 20 52 1009 vento: Nord O/SO 14.8
21 Maggio 2024 20:20 tempo osservato: Sereno Sereno 20 59 1008 vento: Nord O 13
21 Maggio 2024 19:50 tempo osservato: Sereno Sereno 23 46 1008 vento: Nord O/NO 11.1
21 Maggio 2024 19:20 tempo osservato: Sereno Sereno 24 43 1008 vento: Nord O 14.8
21 Maggio 2024 18:50 tempo osservato: Sereno Sereno 24 47 1007 vento: Nord O 14.8
21 Maggio 2024 18:20 tempo osservato: Sereno Sereno 23 60 1007 vento: Nord N 14.8
21 Maggio 2024 17:50 tempo osservato: Sereno Sereno 25 44 1007 vento: Nord O 22.2
21 Maggio 2024 17:20 tempo osservato: Molto Nuvoloso Molto Nuvoloso 26 50 1007 vento: Nord O 13
21 Maggio 2024 16:50 tempo osservato: Poco Nuvoloso Poco Nuvoloso 26 47 1007 vento: Nord O/SO 14.8
21 Maggio 2024 16:20 tempo osservato: Sereno Sereno 25 47 1007 vento: Nord O 20.3
21 Maggio 2024 15:50 tempo osservato: Molto Nuvoloso Molto Nuvoloso 25 50 1007 vento: Nord O 24
21 Maggio 2024 15:20 tempo osservato: Molto Nuvoloso Molto Nuvoloso 24 53 1007 vento: Nord O 20.3
21 Maggio 2024 14:20 tempo osservato: Molto Nuvoloso Molto Nuvoloso 25 50 1007 vento: Nord O 25.9
21 Maggio 2024 13:50 tempo osservato: Molto Nuvoloso Molto Nuvoloso 24 57 1007 vento: Nord O 24